Time;durP1;ratioP1;P1;durP2;ratioP2;P2;SDS_P1;SDS_P2;PMS_P1;PMS_P2;Temp;Humidity;BMP_temperature;BMP_pressure;BME280_temperature;BME280_humidity;BME280_pressure;Samples;Min_cycle;Max_cycle;Signal;HPM_P1;HPM_P2
2022/04/25 00:02:24;;;;;;;4.93;4.53;;;;;;;;;;5042175;28;20197;-56
2022/04/25 00:04:52;;;;;;;5.13;4.72;;;;;;;;;;5057146;28;20209;-56
2022/04/25 00:07:21;;;;;;;4.80;4.50;;;;;;;;;;5056534;28;20204;-56
2022/04/25 00:09:49;;;;;;;4.15;3.85;;;;;;;;;;5056766;28;20598;-56
2022/04/25 00:12:16;;;;;;;4.45;4.15;;;;;;;;;;5057288;28;20204;-56
2022/04/25 00:14:44;;;;;;;4.40;4.10;;;;;;;;;;5049506;28;20197;-56
2022/04/25 00:17:12;;;;;;;4.30;4.00;;;;;;;;;;5037064;28;20305;-56
2022/04/25 00:19:40;;;;;;;4.55;4.25;;;;;;;;;;5036337;28;20308;-56
2022/04/25 00:22:07;;;;;;;4.20;3.90;;;;;;;;;;5036749;28;20206;-56
2022/04/25 00:24:36;;;;;;;4.60;4.30;;;;;;;;;;5036660;28;20206;-56
2022/04/25 00:27:05;;;;;;;4.43;4.13;;;;;;;;;;5037042;28;20591;-57
2022/04/25 00:29:32;;;;;;;4.00;3.70;;;;;;;;;;5037261;28;20225;-57
2022/04/25 00:31:59;;;;;;;4.13;3.83;;;;;;;;;;5052861;28;20405;-57
2022/04/25 00:34:26;;;;;;;4.28;3.97;;;;;;;;;;5055473;28;20227;-56
2022/04/25 00:36:54;;;;;;;4.15;3.85;;;;;;;;;;5054905;28;20205;-57
2022/04/25 00:39:21;;;;;;;3.90;3.60;;;;;;;;;;5038312;28;20619;-57
2022/04/25 00:41:50;;;;;;;4.18;3.88;;;;;;;;;;5045358;28;20213;-56
2022/04/25 00:44:18;;;;;;;4.22;3.92;;;;;;;;;;5055582;28;20697;-56
2022/04/25 00:46:47;;;;;;;4.20;3.90;;;;;;;;;;5036595;28;20198;-57
2022/04/25 00:49:15;;;;;;;4.30;4.00;;;;;;;;;;5043495;28;20236;-57
2022/04/25 00:51:42;;;;;;;4.32;4.03;;;;;;;;;;5055782;28;20567;-57
2022/04/25 00:54:10;;;;;;;3.80;3.50;;;;;;;;;;5056452;28;20517;-57
2022/04/25 00:56:39;;;;;;;3.92;3.67;;;;;;;;;;5055960;28;20205;-57
2022/04/25 00:59:08;;;;;;;3.67;3.47;;;;;;;;;;5056618;28;20539;-57
2022/04/25 01:01:36;;;;;;;3.38;3.17;;;;;;;;;;5055761;28;20208;-57
2022/04/25 01:04:04;;;;;;;3.72;3.42;;;;;;;;;;5053977;28;20201;-57
2022/04/25 01:06:31;;;;;;;3.72;3.42;;;;;;;;;;5055762;28;20208;-57
2022/04/25 01:08:59;;;;;;;3.75;3.55;;;;;;;;;;5042164;28;20206;-57
2022/04/25 01:11:27;;;;;;;4.00;3.70;;;;;;;;;;5035921;28;20221;-57
2022/04/25 01:13:54;;;;;;;3.67;3.42;;;;;;;;;;5036315;28;20216;-57
2022/04/25 01:16:23;;;;;;;3.17;2.97;;;;;;;;;;5043300;28;20205;-57
2022/04/25 01:18:50;;;;;;;3.30;3.10;;;;;;;;;;5054170;28;20235;-57
2022/04/25 01:21:19;;;;;;;3.60;3.40;;;;;;;;;;5049416;28;20201;-57
2022/04/25 01:29:18;;;;;;;3.55;3.25;;;;;;;;;;5036115;28;20200;-57
2022/04/25 01:31:45;;;;;;;3.33;3.13;;;;;;;;;;5037060;28;20611;-57
2022/04/25 01:34:13;;;;;;;3.50;3.30;;;;;;;;;;5036161;28;20220;-57
2022/04/25 01:36:41;;;;;;;3.42;3.22;;;;;;;;;;5046613;28;20207;-57
2022/04/25 01:39:09;;;;;;;3.40;3.20;;;;;;;;;;5040018;28;20224;-57
2022/04/25 01:41:37;;;;;;;3.65;3.45;;;;;;;;;;5041510;28;20193;-56
2022/04/25 01:44:04;;;;;;;3.42;3.22;;;;;;;;;;5051077;28;20505;-57
2022/04/25 01:46:31;;;;;;;3.40;3.20;;;;;;;;;;5043527;28;20197;-57
2022/04/25 01:48:59;;;;;;;3.40;3.20;;;;;;;;;;5056022;28;20228;-57
2022/04/25 01:51:26;;;;;;;3.38;3.17;;;;;;;;;;5037471;28;20222;-57
2022/04/25 01:53:54;;;;;;;3.33;3.13;;;;;;;;;;5036675;28;20209;-57
2022/04/25 01:56:22;;;;;;;3.60;3.40;;;;;;;;;;5036423;28;20202;-57
2022/04/25 01:58:50;;;;;;;3.15;2.95;;;;;;;;;;5036576;28;20582;-57
2022/04/25 02:01:17;;;;;;;3.35;3.15;;;;;;;;;;5046515;28;20212;-56
2022/04/25 02:03:47;;;;;;;3.25;3.05;;;;;;;;;;5044462;28;20216;-56
2022/04/25 02:06:14;;;;;;;3.20;3.00;;;;;;;;;;5050419;28;20510;-56
2022/04/25 02:08:42;;;;;;;3.28;3.08;;;;;;;;;;5036453;28;20205;-56
2022/04/25 02:11:21;;;;;;;3.47;3.28;;;;;;;;;;5035417;28;20260;-56
2022/04/25 02:13:51;;;;;;;3.00;2.80;;;;;;;;;;5036756;28;20216;-56
2022/04/25 02:16:19;;;;;;;3.33;3.13;;;;;;;;;;5036465;28;20206;-56
2022/04/25 02:18:46;;;;;;;3.20;3.00;;;;;;;;;;5044297;28;20203;-57
2022/04/25 02:21:14;;;;;;;3.17;2.97;;;;;;;;;;5055657;28;20602;-57
2022/04/25 02:23:41;;;;;;;3.10;2.90;;;;;;;;;;5056419;28;20216;-57
2022/04/25 02:26:09;;;;;;;2.90;2.70;;;;;;;;;;5056280;28;20205;-57
2022/04/25 02:28:36;;;;;;;3.00;2.80;;;;;;;;;;5055949;28;20209;-57
2022/04/25 02:31:06;;;;;;;3.17;2.97;;;;;;;;;;5056264;28;20229;-57
2022/04/25 02:33:34;;;;;;;3.13;2.92;;;;;;;;;;5056100;28;20216;-56
2022/04/25 02:36:04;;;;;;;2.90;2.70;;;;;;;;;;5041739;28;20233;-56
2022/04/25 02:38:31;;;;;;;2.90;2.70;;;;;;;;;;5045392;28;20715;-56
2022/04/25 02:41:09;;;;;;;3.00;2.80;;;;;;;;;;5054699;28;20194;-57
2022/04/25 02:43:37;;;;;;;2.92;2.72;;;;;;;;;;5035603;28;20267;-57
2022/04/25 02:46:07;;;;;;;3.00;2.80;;;;;;;;;;5035622;28;20209;-56
2022/04/25 02:48:34;;;;;;;2.90;2.70;;;;;;;;;;5035993;28;20206;-56
2022/04/25 02:51:02;;;;;;;2.53;2.42;;;;;;;;;;5035509;28;20217;-56
2022/04/25 02:53:29;;;;;;;3.03;2.83;;;;;;;;;;5034781;28;20529;-56
2022/04/25 02:55:58;;;;;;;2.80;2.60;;;;;;;;;;5035606;28;20217;-56
2022/04/25 02:58:25;;;;;;;2.97;2.78;;;;;;;;;;5038515;28;20306;-56
2022/04/25 03:00:53;;;;;;;3.20;3.00;;;;;;;;;;5038975;28;20202;-57
2022/04/25 03:03:22;;;;;;;2.50;2.40;;;;;;;;;;5039366;28;20827;-57
2022/04/25 03:05:50;;;;;;;3.00;2.80;;;;;;;;;;5039325;28;20228;-57
2022/04/25 03:08:18;;;;;;;2.53;2.40;;;;;;;;;;5038966;28;20603;-56
2022/04/25 03:10:46;;;;;;;2.70;2.53;;;;;;;;;;5039294;28;20233;-56
2022/04/25 03:13:14;;;;;;;2.85;2.65;;;;;;;;;;5038922;28;20209;-56
2022/04/25 03:15:42;;;;;;;3.03;2.83;;;;;;;;;;5038841;28;20563;-56
2022/04/25 03:18:10;;;;;;;2.67;2.47;;;;;;;;;;5038829;28;20209;-56
2022/04/25 03:20:39;;;;;;;2.95;2.75;;;;;;;;;;5038339;28;20194;-56
2022/04/25 03:23:07;;;;;;;2.40;2.30;;;;;;;;;;5038854;28;20519;-56
2022/04/25 03:25:34;;;;;;;2.78;2.58;;;;;;;;;;5038702;28;20210;-56
2022/04/25 03:28:02;;;;;;;2.85;2.65;;;;;;;;;;5038216;28;20205;-56
2022/04/25 03:30:30;;;;;;;2.40;2.30;;;;;;;;;;5038727;28;20230;-56
2022/04/25 03:32:58;;;;;;;2.60;2.50;;;;;;;;;;5038298;28;20217;-56
2022/04/25 03:35:25;;;;;;;2.58;2.47;;;;;;;;;;5038189;28;20217;-56
2022/04/25 03:37:55;;;;;;;2.63;2.47;;;;;;;;;;5037887;28;20197;-56
2022/04/25 03:40:22;;;;;;;2.67;2.47;;;;;;;;;;5038166;28;20202;-56
2022/04/25 03:42:50;;;;;;;2.88;2.67;;;;;;;;;;5038080;28;20701;-56
2022/04/25 03:45:18;;;;;;;2.90;2.70;;;;;;;;;;5039068;28;20206;-56
2022/04/25 03:47:48;;;;;;;2.42;2.30;;;;;;;;;;5037836;28;20302;-56
2022/04/25 03:50:16;;;;;;;2.70;2.50;;;;;;;;;;5037852;28;20226;-56
2022/04/25 03:52:45;;;;;;;2.53;2.40;;;;;;;;;;5037414;28;20230;-56
2022/04/25 03:58:00;;;;;;;2.72;2.53;;;;;;;;;;5044395;28;20197;-57
2022/04/25 04:00:27;;;;;;;2.50;2.40;;;;;;;;;;5058375;28;20197;-57
2022/04/25 04:02:56;;;;;;;2.65;2.45;;;;;;;;;;5047487;28;20210;-57
2022/04/25 04:05:24;;;;;;;2.60;2.50;;;;;;;;;;5037670;28;20288;-57
2022/04/25 04:07:51;;;;;;;2.63;2.42;;;;;;;;;;5037329;28;20528;-57
2022/04/25 04:10:20;;;;;;;2.40;2.30;;;;;;;;;;5037690;28;20206;-56
2022/04/25 04:12:47;;;;;;;2.42;2.22;;;;;;;;;;5037870;28;20220;-56
2022/04/25 04:15:16;;;;;;;2.92;2.72;;;;;;;;;;5048020;28;20201;-56
2022/04/25 04:17:43;;;;;;;2.42;2.33;;;;;;;;;;5057769;28;20213;-56
2022/04/25 04:20:12;;;;;;;2.55;2.35;;;;;;;;;;5057305;28;20205;-56
2022/04/25 04:22:41;;;;;;;2.25;2.15;;;;;;;;;;5056807;28;20204;-56
2022/04/25 04:25:10;;;;;;;2.58;2.47;;;;;;;;;;5056189;28;20224;-56
2022/04/25 04:27:39;;;;;;;2.08;1.98;;;;;;;;;;5057060;28;20236;-56
2022/04/25 04:30:08;;;;;;;2.55;2.45;;;;;;;;;;5056393;28;20212;-56
2022/04/25 04:32:38;;;;;;;2.30;2.20;;;;;;;;;;5056076;28;20497;-56
2022/04/25 04:35:07;;;;;;;2.65;2.55;;;;;;;;;;5055890;28;20609;-56
2022/04/25 04:37:35;;;;;;;2.10;2.00;;;;;;;;;;5053509;28;20215;-56
2022/04/25 04:42:48;;;;;;;2.45;2.35;;;;;;;;;;5039315;28;20299;-56
2022/04/25 04:45:16;;;;;;;2.30;2.20;;;;;;;;;;5035918;28;20206;-56
2022/04/25 04:47:44;;;;;;;2.20;2.10;;;;;;;;;;5035932;28;20208;-56
2022/04/25 04:50:14;;;;;;;2.10;2.00;;;;;;;;;;5035522;28;20221;-56
2022/04/25 04:52:43;;;;;;;2.80;2.60;;;;;;;;;;5035690;28;20237;-56
2022/04/25 04:55:10;;;;;;;2.15;2.05;;;;;;;;;;5035221;28;20221;-56
2022/04/25 04:57:38;;;;;;;2.20;2.10;;;;;;;;;;5053121;28;20483;-56
2022/04/25 05:00:08;;;;;;;2.40;2.30;;;;;;;;;;5045127;28;20198;-56
2022/04/25 05:02:36;;;;;;;2.30;2.20;;;;;;;;;;5033589;28;20198;-56
2022/04/25 05:05:04;;;;;;;2.38;2.28;;;;;;;;;;5033763;28;20458;-56
2022/04/25 05:07:31;;;;;;;2.35;2.22;;;;;;;;;;5035200;28;20201;-56
2022/04/25 05:09:58;;;;;;;2.30;2.20;;;;;;;;;;5034289;28;20206;-56
2022/04/25 05:12:27;;;;;;;2.17;2.08;;;;;;;;;;5034265;28;20222;-56
2022/04/25 05:14:55;;;;;;;2.30;2.20;;;;;;;;;;5035653;28;20216;-56
2022/04/25 05:17:23;;;;;;;2.22;2.13;;;;;;;;;;5034302;28;20586;-56
2022/04/25 05:19:51;;;;;;;2.20;2.10;;;;;;;;;;5040598;28;20204;-56
2022/04/25 05:22:18;;;;;;;2.03;1.92;;;;;;;;;;5042593;28;20512;-56
2022/04/25 05:24:46;;;;;;;2.28;2.17;;;;;;;;;;5034005;28;20287;-56
2022/04/25 05:27:14;;;;;;;2.25;2.15;;;;;;;;;;5045730;28;20497;-56
2022/04/25 05:29:41;;;;;;;2.20;2.10;;;;;;;;;;5021698;28;20305;-56
2022/04/25 05:32:09;;;;;;;2.35;2.25;;;;;;;;;;5034334;28;20305;-56
2022/04/25 05:34:37;;;;;;;2.20;2.10;;;;;;;;;;5033872;28;20503;-56
2022/04/25 05:37:05;;;;;;;2.00;1.90;;;;;;;;;;5033548;28;20197;-56
2022/04/25 05:39:32;;;;;;;2.20;2.10;;;;;;;;;;5053808;28;20509;-58
2022/04/25 05:42:00;;;;;;;2.00;1.90;;;;;;;;;;5046149;28;20225;-56
2022/04/25 05:44:27;;;;;;;2.22;2.10;;;;;;;;;;5052263;28;20204;-56
2022/04/25 05:46:56;;;;;;;2.00;1.90;;;;;;;;;;5034085;28;20212;-56
2022/04/25 05:52:11;;;;;;;2.13;2.03;;;;;;;;;;5033803;28;20299;-56
2022/04/25 05:54:38;;;;;;;1.85;1.75;;;;;;;;;;5034294;28;20208;-56
2022/04/25 05:57:06;;;;;;;2.15;2.03;;;;;;;;;;5040014;28;20205;-56
2022/04/25 05:59:33;;;;;;;2.00;1.90;;;;;;;;;;5039333;28;20208;-56
2022/04/25 06:02:00;;;;;;;2.20;2.10;;;;;;;;;;5046806;28;20197;-56
2022/04/25 06:04:28;;;;;;;2.30;2.10;;;;;;;;;;5030817;28;20659;-56
2022/04/25 06:06:57;;;;;;;2.05;1.88;;;;;;;;;;5030189;28;20213;-56
2022/04/25 06:09:26;;;;;;;1.90;1.80;;;;;;;;;;5030529;28;20206;-56
2022/04/25 06:11:54;;;;;;;2.10;2.00;;;;;;;;;;5029852;28;20221;-56
2022/04/25 06:14:22;;;;;;;1.92;1.83;;;;;;;;;;5033578;28;20197;-56
2022/04/25 06:16:49;;;;;;;1.80;1.70;;;;;;;;;;5053752;28;20201;-56
2022/04/25 06:19:17;;;;;;;1.98;1.88;;;;;;;;;;5054111;28;20208;-56
2022/04/25 06:21:45;;;;;;;1.90;1.80;;;;;;;;;;5053327;28;20201;-56
2022/04/25 06:24:13;;;;;;;2.58;1.80;;;;;;;;;;5051720;28;20491;-56
2022/04/25 06:26:41;;;;;;;2.00;1.90;;;;;;;;;;5052267;28;20205;-56
2022/04/25 06:29:09;;;;;;;1.90;1.80;;;;;;;;;;5050837;28;20216;-56
2022/04/25 06:31:36;;;;;;;2.08;1.98;;;;;;;;;;5044810;28;20316;-56
2022/04/25 06:34:04;;;;;;;2.80;1.70;;;;;;;;;;5041164;28;20354;-56
2022/04/25 06:36:32;;;;;;;1.98;1.88;;;;;;;;;;5040560;28;20197;-56
2022/04/25 06:38:59;;;;;;;1.95;1.85;;;;;;;;;;5040026;28;20614;-56
2022/04/25 06:41:26;;;;;;;1.98;1.65;;;;;;;;;;5036040;28;20205;-56
2022/04/25 06:43:55;;;;;;;1.75;1.65;;;;;;;;;;5053695;28;20213;-56
2022/04/25 06:46:22;;;;;;;1.60;1.50;;;;;;;;;;5047081;28;20204;-56
2022/04/25 06:51:31;;;;;;;1.88;1.70;;;;;;;;;;5034432;28;20214;-57
2022/04/25 06:54:00;;;;;;;2.15;1.90;;;;;;;;;;5040268;28;20201;-56
2022/04/25 06:56:27;;;;;;;2.50;1.80;;;;;;;;;;5053325;28;20302;-56
2022/04/25 06:58:56;;;;;;;1.80;1.70;;;;;;;;;;5053645;28;20212;-56
2022/04/25 07:01:24;;;;;;;2.05;1.63;;;;;;;;;;5035216;28;20208;-56
2022/04/25 07:03:51;;;;;;;2.42;1.50;;;;;;;;;;5033850;28;20201;-56
2022/04/25 07:06:19;;;;;;;1.95;1.85;;;;;;;;;;5050036;28;20567;-56
2022/04/25 07:08:46;;;;;;;1.92;1.65;;;;;;;;;;5033592;28;20206;-57
2022/04/25 07:11:13;;;;;;;1.80;1.70;;;;;;;;;;5034233;28;20201;-56
2022/04/25 07:13:42;;;;;;;1.50;1.40;;;;;;;;;;5032951;28;20575;-56
2022/04/25 07:16:12;;;;;;;1.88;1.50;;;;;;;;;;5032786;28;20198;-56
2022/04/25 07:18:39;;;;;;;1.70;1.60;;;;;;;;;;5033651;28;20220;-56
2022/04/25 07:28:48;;;;;;;1.70;1.60;;;;;;;;;;5035468;28;20774;-56
2022/04/25 07:29:27;;;;;;;1.60;1.50;;;;;;;;;;5035710;28;20201;-56
2022/04/25 07:31:55;;;;;;;1.65;1.55;;;;;;;;;;5033763;28;20226;-56
2022/04/25 07:34:23;;;;;;;1.63;1.33;;;;;;;;;;5033613;28;20201;-56
2022/04/25 07:36:53;;;;;;;2.08;1.52;;;;;;;;;;5033348;28;20193;-56
2022/04/25 07:39:20;;;;;;;2.00;1.50;;;;;;;;;;5033549;28;20198;-56
2022/04/25 07:41:48;;;;;;;1.80;1.70;;;;;;;;;;5033860;28;20190;-56
2022/04/25 07:44:15;;;;;;;1.67;1.50;;;;;;;;;;5033867;28;20193;-56
2022/04/25 07:46:42;;;;;;;1.35;1.30;;;;;;;;;;5034520;28;20201;-56
2022/04/25 07:49:12;;;;;;;1.40;1.30;;;;;;;;;;5035126;28;20205;-56
2022/04/25 07:51:41;;;;;;;1.58;1.48;;;;;;;;;;5033805;28;20218;-56
2022/04/25 07:54:08;;;;;;;1.48;1.38;;;;;;;;;;5034607;28;20202;-56
2022/04/25 07:56:36;;;;;;;1.42;1.33;;;;;;;;;;5033804;28;20263;-56
2022/04/25 07:59:05;;;;;;;1.30;1.30;;;;;;;;;;5033575;28;20216;-56
2022/04/25 08:01:33;;;;;;;1.35;1.25;;;;;;;;;;5033664;28;20312;-56
2022/04/25 08:04:00;;;;;;;1.63;1.20;;;;;;;;;;5033765;28;20255;-56
2022/04/25 08:06:29;;;;;;;1.50;1.40;;;;;;;;;;5033113;28;20497;-56
2022/04/25 08:08:58;;;;;;;1.27;1.17;;;;;;;;;;5033914;28;20209;-56
2022/04/25 08:11:26;;;;;;;1.85;1.40;;;;;;;;;;5034099;28;20209;-56
2022/04/25 08:19:23;;;;;;;1.23;1.23;;;;;;;;;;5034187;28;20225;-57
2022/04/25 08:21:54;;;;;;;1.50;1.40;;;;;;;;;;5032421;28;20206;-56
2022/04/25 08:24:21;;;;;;;1.40;1.30;;;;;;;;;;5032951;28;20209;-56
2022/04/25 08:26:49;;;;;;;1.42;1.27;;;;;;;;;;5033133;28;20205;-56
2022/04/25 08:29:16;;;;;;;1.50;1.40;;;;;;;;;;5033826;28;20220;-56
2022/04/25 08:31:43;;;;;;;1.60;1.50;;;;;;;;;;5033987;28;20434;-56
2022/04/25 08:34:11;;;;;;;1.48;1.30;;;;;;;;;;5032566;28;20194;-56
2022/04/25 08:36:38;;;;;;;1.40;1.30;;;;;;;;;;5032651;28;20215;-56
2022/04/25 08:39:07;;;;;;;1.40;1.30;;;;;;;;;;5032968;28;20217;-56
2022/04/25 08:41:38;;;;;;;1.63;1.50;;;;;;;;;;5037267;28;20206;-56
2022/04/25 08:44:06;;;;;;;1.50;1.27;;;;;;;;;;5032636;28;20231;-56
2022/04/25 08:46:36;;;;;;;1.60;1.50;;;;;;;;;;5041954;28;20197;-56
2022/04/25 08:49:05;;;;;;;1.58;1.48;;;;;;;;;;5053786;28;20200;-56
2022/04/25 08:51:37;;;;;;;1.40;1.30;;;;;;;;;;5051422;28;20567;-56
2022/04/25 08:54:06;;;;;;;1.42;1.33;;;;;;;;;;5052406;28;20301;-56
2022/04/25 08:56:35;;;;;;;1.50;1.40;;;;;;;;;;5039619;28;20584;-56
2022/04/25 08:59:05;;;;;;;1.50;1.40;;;;;;;;;;5046024;28;20231;-56
2022/04/25 09:01:34;;;;;;;1.73;1.50;;;;;;;;;;5034070;28;20213;-56
2022/04/25 09:04:02;;;;;;;1.60;1.50;;;;;;;;;;5035457;28;20229;-56
2022/04/25 09:06:30;;;;;;;2.38;1.30;;;;;;;;;;5031852;28;20229;-56
2022/04/25 09:08:58;;;;;;;1.77;1.60;;;;;;;;;;5045647;28;20205;-56
2022/04/25 09:14:12;;;;;;;1.50;1.40;;;;;;;;;;5051455;28;20208;-56
2022/04/25 09:16:39;;;;;;;1.60;1.50;;;;;;;;;;5050870;28;20211;-56
2022/04/25 09:19:07;;;;;;;1.63;1.52;;;;;;;;;;5045940;28;20202;-56
2022/04/25 09:21:40;;;;;;;1.80;1.70;;;;;;;;;;5041141;28;20316;-56
2022/04/25 09:24:20;;;;;;;1.58;1.48;;;;;;;;;;5051657;28;20201;-56
2022/04/25 09:26:47;;;;;;;1.75;1.65;;;;;;;;;;5039447;28;20205;-57
2022/04/25 09:29:16;;;;;;;1.98;1.45;;;;;;;;;;5031809;28;20300;-56
2022/04/25 09:31:49;;;;;;;1.60;1.50;;;;;;;;;;5032217;28;20194;-56
2022/04/25 09:34:59;;;;;;;1.77;1.63;;;;;;;;;;5039838;28;20444;-56
2022/04/25 09:37:06;;;;;;;1.58;1.48;;;;;;;;;;5032070;28;20206;-56
2022/04/25 09:39:34;;;;;;;1.83;1.50;;;;;;;;;;5050203;28;20201;-56
2022/04/25 09:42:01;;;;;;;1.88;1.38;;;;;;;;;;5039707;28;20555;-56
2022/04/25 09:44:52;;;;;;;1.70;1.60;;;;;;;;;;5046151;28;20495;-56
2022/04/25 09:47:26;;;;;;;1.80;1.70;;;;;;;;;;5031773;28;20229;-56
2022/04/25 09:49:59;;;;;;;1.70;1.60;;;;;;;;;;5030879;28;20209;-56
2022/04/25 09:52:27;;;;;;;1.55;1.45;;;;;;;;;;5029881;28;20229;-56
2022/04/25 09:54:56;;;;;;;1.60;1.50;;;;;;;;;;5031380;28;20209;-56
2022/04/25 09:57:30;;;;;;;1.70;1.60;;;;;;;;;;5047280;28;20197;-56
2022/04/25 09:59:59;;;;;;;2.10;1.88;;;;;;;;;;5044353;28;20236;-56
2022/04/25 10:02:28;;;;;;;2.05;1.70;;;;;;;;;;5043447;28;20208;-56
2022/04/25 10:04:55;;;;;;;1.80;1.70;;;;;;;;;;5049753;28;20216;-56
2022/04/25 10:07:24;;;;;;;1.80;1.70;;;;;;;;;;5035198;28;20205;-56
2022/04/25 10:09:53;;;;;;;1.65;1.55;;;;;;;;;;5035638;28;20206;-56
2022/04/25 10:12:21;;;;;;;1.70;1.60;;;;;;;;;;5035405;28;20554;-56
2022/04/25 10:14:49;;;;;;;2.05;1.95;;;;;;;;;;5034419;28;20212;-56
2022/04/25 10:17:18;;;;;;;1.70;1.60;;;;;;;;;;5033081;28;20217;-56
2022/04/25 10:19:46;;;;;;;1.75;1.65;;;;;;;;;;5032800;28;20459;-56
2022/04/25 10:22:14;;;;;;;1.65;1.55;;;;;;;;;;5033773;28;20288;-56
2022/04/25 10:24:41;;;;;;;1.80;1.70;;;;;;;;;;5034616;28;20220;-56
2022/04/25 10:27:12;;;;;;;1.70;1.60;;;;;;;;;;5050412;28;20197;-56
2022/04/25 10:29:44;;;;;;;1.90;1.80;;;;;;;;;;5053947;28;20201;-56
2022/04/25 10:32:12;;;;;;;1.70;1.60;;;;;;;;;;5053049;28;20216;-56
2022/04/25 10:34:47;;;;;;;1.63;1.52;;;;;;;;;;5050956;28;20216;-56
2022/04/25 10:37:31;;;;;;;1.73;1.63;;;;;;;;;;5033788;28;20259;-56
2022/04/25 10:39:58;;;;;;;1.83;1.73;;;;;;;;;;5054255;28;20197;-56
2022/04/25 10:45:11;;;;;;;2.15;1.95;;;;;;;;;;5034727;28;20220;-56
2022/04/25 10:47:38;;;;;;;1.90;1.80;;;;;;;;;;5034296;28;20523;-56
2022/04/25 10:50:09;;;;;;;1.67;1.58;;;;;;;;;;5034086;28;20560;-56
2022/04/25 10:52:55;;;;;;;2.00;1.90;;;;;;;;;;5032030;28;20273;-56
2022/04/25 10:55:47;;;;;;;1.90;1.80;;;;;;;;;;5033788;28;20206;-56
2022/04/25 10:58:20;;;;;;;1.83;1.73;;;;;;;;;;5033846;28;20551;-56
2022/04/25 11:00:51;;;;;;;1.90;1.80;;;;;;;;;;5050624;28;20201;-56
2022/04/25 11:03:20;;;;;;;1.77;1.67;;;;;;;;;;5053683;28;20288;-56
2022/04/25 11:05:49;;;;;;;1.70;1.60;;;;;;;;;;5052886;28;20263;-56
2022/04/25 11:08:34;;;;;;;1.98;1.88;;;;;;;;;;5046668;28;20305;-56
2022/04/25 11:11:08;;;;;;;2.00;1.90;;;;;;;;;;5052036;28;20224;-56
2022/04/25 11:13:36;;;;;;;1.80;1.70;;;;;;;;;;5053093;28;20320;-56
2022/04/25 11:16:18;;;;;;;2.00;1.90;;;;;;;;;;5052205;28;20557;-56
2022/04/25 11:18:46;;;;;;;1.90;1.80;;;;;;;;;;5051760;28;20589;-56
2022/04/25 11:21:16;;;;;;;1.92;1.83;;;;;;;;;;5044147;28;20206;-56
2022/04/25 11:23:50;;;;;;;2.22;1.80;;;;;;;;;;5039082;28;20219;-56
2022/04/25 11:26:36;;;;;;;2.20;2.00;;;;;;;;;;5053303;28;20279;-56
2022/04/25 11:29:09;;;;;;;1.92;1.83;;;;;;;;;;5053029;28;20193;-56
2022/04/25 11:31:36;;;;;;;1.90;1.75;;;;;;;;;;5053023;28;20266;-56
2022/04/25 11:34:05;;;;;;;2.05;1.95;;;;;;;;;;5054157;28;20220;-56
2022/04/25 11:36:38;;;;;;;2.10;2.00;;;;;;;;;;5041303;28;20603;-56
2022/04/25 11:41:52;;;;;;;1.80;1.70;;;;;;;;;;5042115;28;20201;-56
2022/04/25 11:44:19;;;;;;;1.85;1.75;;;;;;;;;;5032216;28;20591;-57
2022/04/25 11:46:47;;;;;;;2.20;2.10;;;;;;;;;;5045466;28;20609;-56
2022/04/25 11:49:27;;;;;;;2.20;2.10;;;;;;;;;;5052858;28;20646;-56
2022/04/25 11:52:00;;;;;;;1.88;1.77;;;;;;;;;;5053952;28;20267;-56
2022/04/25 11:54:27;;;;;;;1.95;1.85;;;;;;;;;;5053317;28;20283;-56
2022/04/25 11:57:00;;;;;;;1.85;1.75;;;;;;;;;;5053540;28;20193;-56
2022/04/25 11:59:28;;;;;;;2.45;2.25;;;;;;;;;;5050259;28;20385;-56
2022/04/25 12:01:55;;;;;;;2.03;1.92;;;;;;;;;;5042666;28;20197;-56
2022/04/25 12:04:23;;;;;;;2.17;2.08;;;;;;;;;;5052293;28;20316;-56
2022/04/25 12:06:52;;;;;;;2.60;2.40;;;;;;;;;;5034380;28;20367;-56
2022/04/25 12:17:41;;;;;;;2.50;2.30;;;;;;;;;;5038216;28;20263;-56
2022/04/25 12:20:10;;;;;;;2.40;2.20;;;;;;;;;;5051681;28;20212;-56
2022/04/25 12:22:38;;;;;;;2.35;2.15;;;;;;;;;;5051983;28;20205;-56
2022/04/25 12:25:14;;;;;;;2.70;2.50;;;;;;;;;;5052103;28;20209;-56
2022/04/25 12:27:57;;;;;;;2.42;2.22;;;;;;;;;;5049855;28;20220;-56
2022/04/25 12:30:25;;;;;;;2.20;2.10;;;;;;;;;;5051322;28;20587;-56
2022/04/25 12:33:06;;;;;;;2.75;2.50;;;;;;;;;;5033145;28;20296;-56
2022/04/25 12:35:33;;;;;;;2.42;2.25;;;;;;;;;;5034734;28;20220;-56
2022/04/25 12:38:01;;;;;;;2.40;2.20;;;;;;;;;;5048852;28;20429;-56
2022/04/25 12:40:30;;;;;;;2.67;2.47;;;;;;;;;;5035854;28;20201;-56
2022/04/25 12:42:58;;;;;;;3.00;2.70;;;;;;;;;;5045121;28;20648;-56
2022/04/25 12:45:25;;;;;;;2.70;2.50;;;;;;;;;;5033713;28;20464;-56
2022/04/25 12:47:56;;;;;;;2.75;2.55;;;;;;;;;;5051618;28;20261;-56
2022/04/25 12:50:42;;;;;;;2.90;2.60;;;;;;;;;;5051705;28;20212;-56
2022/04/25 12:53:10;;;;;;;2.80;2.60;;;;;;;;;;5051990;28;20306;-56
2022/04/25 12:55:46;;;;;;;3.60;2.67;;;;;;;;;;5051063;28;20227;-56
2022/04/25 12:58:13;;;;;;;2.47;2.28;;;;;;;;;;5048546;28;20199;-56
2022/04/25 13:00:42;;;;;;;3.00;2.80;;;;;;;;;;5037783;28;20239;-56
2022/04/25 13:03:10;;;;;;;2.95;2.75;;;;;;;;;;5031024;28;20206;-56
2022/04/25 13:05:38;;;;;;;3.17;2.80;;;;;;;;;;5030878;28;20300;-56
2022/04/25 13:08:06;;;;;;;2.72;2.53;;;;;;;;;;5039370;28;20209;-56
2022/04/25 13:10:33;;;;;;;3.03;2.78;;;;;;;;;;5051984;28;20579;-56
2022/04/25 13:13:02;;;;;;;2.90;2.70;;;;;;;;;;5043633;28;20194;-56
2022/04/25 13:15:30;;;;;;;3.17;2.88;;;;;;;;;;5031698;28;20584;-56
2022/04/25 13:17:58;;;;;;;3.03;2.75;;;;;;;;;;5030968;28;20206;-56
2022/04/25 13:20:28;;;;;;;3.00;2.80;;;;;;;;;;5032284;28;20204;-56
2022/04/25 13:22:56;;;;;;;3.20;3.00;;;;;;;;;;5031326;28;20698;-56
2022/04/25 13:25:23;;;;;;;3.10;2.90;;;;;;;;;;5032005;28;20209;-56
2022/04/25 13:27:51;;;;;;;3.35;3.05;;;;;;;;;;5041976;28;20209;-56
2022/04/25 13:30:21;;;;;;;3.20;3.00;;;;;;;;;;5031571;28;20515;-56
2022/04/25 13:32:50;;;;;;;3.88;3.30;;;;;;;;;;5044078;28;20193;-56
2022/04/25 13:35:18;;;;;;;3.65;3.35;;;;;;;;;;5049842;28;20294;-56
2022/04/25 13:37:45;;;;;;;3.17;2.97;;;;;;;;;;5050205;28;20304;-56
2022/04/25 13:40:13;;;;;;;3.92;3.63;;;;;;;;;;5049724;28;20374;-56
2022/04/25 13:42:43;;;;;;;3.30;3.00;;;;;;;;;;5050095;28;20204;-56
2022/04/25 13:45:11;;;;;;;3.25;2.95;;;;;;;;;;5031123;28;20193;-56
2022/04/25 13:47:41;;;;;;;3.10;2.90;;;;;;;;;;5031367;28;20213;-56
2022/04/25 13:50:09;;;;;;;3.30;3.08;;;;;;;;;;5029975;28;20255;-56
2022/04/25 13:52:36;;;;;;;3.60;3.30;;;;;;;;;;5029677;28;20320;-56
2022/04/25 13:55:04;;;;;;;3.45;3.17;;;;;;;;;;5030043;28;20237;-56
2022/04/25 13:57:31;;;;;;;4.07;3.03;;;;;;;;;;5030153;28;20627;-56
2022/04/25 13:59:59;;;;;;;3.30;3.00;;;;;;;;;;5029974;28;20345;-56
2022/04/25 14:05:12;;;;;;;3.45;3.15;;;;;;;;;;5029928;28;20200;-56
2022/04/25 14:07:40;;;;;;;3.45;3.15;;;;;;;;;;5028419;28;20216;-56
2022/04/25 14:10:07;;;;;;;3.72;3.42;;;;;;;;;;5030031;28;20591;-56
2022/04/25 14:12:37;;;;;;;4.07;3.40;;;;;;;;;;5029240;28;20205;-56
2022/04/25 14:15:05;;;;;;;3.85;3.50;;;;;;;;;;5029081;28;20213;-56
2022/04/25 14:17:32;;;;;;;3.97;3.65;;;;;;;;;;5028266;28;20295;-56
2022/04/25 14:19:59;;;;;;;3.67;3.38;;;;;;;;;;5028865;28;20615;-56
2022/04/25 14:22:29;;;;;;;4.05;3.75;;;;;;;;;;5029742;28;20197;-56
2022/04/25 14:24:56;;;;;;;3.88;3.58;;;;;;;;;;5029585;28;20594;-56
2022/04/25 14:27:23;;;;;;;3.58;3.30;;;;;;;;;;5029405;28;20202;-56
2022/04/25 14:29:50;;;;;;;3.55;3.25;;;;;;;;;;5030774;28;20213;-56
2022/04/25 14:32:18;;;;;;;3.40;3.20;;;;;;;;;;5029668;28;20488;-56
2022/04/25 14:34:45;;;;;;;3.83;3.47;;;;;;;;;;5029372;28;20221;-56
2022/04/25 14:37:13;;;;;;;3.72;3.42;;;;;;;;;;5030525;28;20606;-56
2022/04/25 14:39:42;;;;;;;4.00;3.70;;;;;;;;;;5030087;28;20212;-56
2022/04/25 14:42:09;;;;;;;4.65;3.95;;;;;;;;;;5030211;28;20225;-56
2022/04/25 14:44:37;;;;;;;3.60;3.30;;;;;;;;;;5029965;28;20221;-56
2022/04/25 14:47:06;;;;;;;4.00;3.70;;;;;;;;;;5028872;28;20198;-56
2022/04/25 14:55:05;;;;;;;4.65;3.45;;;;;;;;;;5033113;28;20256;-56
2022/04/25 14:57:33;;;;;;;3.88;3.58;;;;;;;;;;5032993;28;20198;-56
2022/04/25 15:00:00;;;;;;;3.92;3.50;;;;;;;;;;5032436;28;20205;-56
2022/04/25 15:02:28;;;;;;;4.30;3.90;;;;;;;;;;5033564;28;20300;-56
2022/04/25 15:04:55;;;;;;;4.40;4.00;;;;;;;;;;5032746;28;20198;-56
2022/04/25 15:07:22;;;;;;;4.75;3.42;;;;;;;;;;5032749;28;20197;-56
2022/04/25 15:09:50;;;;;;;4.18;3.72;;;;;;;;;;5033184;28;20193;-56
2022/04/25 15:12:19;;;;;;;3.97;3.63;;;;;;;;;;5034672;28;20483;-56
2022/04/25 15:14:46;;;;;;;4.20;3.90;;;;;;;;;;5033810;28;20218;-56
2022/04/25 15:17:13;;;;;;;3.92;3.63;;;;;;;;;;5033627;28;20209;-56
2022/04/25 15:19:41;;;;;;;4.60;4.20;;;;;;;;;;5033322;28;20212;-56
2022/04/25 15:22:08;;;;;;;6.20;3.90;;;;;;;;;;5032750;28;20194;-56
2022/04/25 15:24:36;;;;;;;4.50;4.10;;;;;;;;;;5032427;28;20301;-56
2022/04/25 15:27:03;;;;;;;4.20;3.90;;;;;;;;;;5032540;28;20462;-56
2022/04/25 15:29:32;;;;;;;4.60;4.20;;;;;;;;;;5032535;28;20205;-56
2022/04/25 15:31:59;;;;;;;4.55;4.15;;;;;;;;;;5049361;28;20197;-56
2022/04/25 15:34:27;;;;;;;4.40;4.00;;;;;;;;;;5052815;28;20248;-56
2022/04/25 15:36:55;;;;;;;4.38;3.97;;;;;;;;;;5053276;28;20215;-56
2022/04/25 15:39:23;;;;;;;3.97;3.67;;;;;;;;;;5036128;28;20583;-56
2022/04/25 15:41:50;;;;;;;4.35;3.95;;;;;;;;;;5045053;28;20197;-56
2022/04/25 15:44:17;;;;;;;4.35;3.95;;;;;;;;;;5050777;28;20208;-56
2022/04/25 15:46:46;;;;;;;4.18;3.88;;;;;;;;;;5033267;28;20460;-56